sensor_id;sensor_type;location;lat;lon;timestamp;P1;durP1;ratioP1;P2;durP2;ratioP2
31686;SDS011;18285;51.330;4.946;2024-01-15T00:16:43;3.27;;;2.13;;
31686;SDS011;18285;51.330;4.946;2024-01-15T00:40:54;2.17;;;1.90;;
31686;SDS011;18285;51.330;4.946;2024-01-15T01:05:05;2.08;;;1.65;;
31686;SDS011;18285;51.330;4.946;2024-01-15T01:29:16;1.00;;;0.90;;
31686;SDS011;18285;51.330;4.946;2024-01-15T01:53:26;1.40;;;1.03;;
31686;SDS011;18285;51.330;4.946;2024-01-15T02:17:57;1.83;;;1.10;;
31686;SDS011;18285;51.330;4.946;2024-01-15T02:42:12;1.33;;;0.77;;
31686;SDS011;18285;51.330;4.946;2024-01-15T03:06:23;0.90;;;0.60;;
31686;SDS011;18285;51.330;4.946;2024-01-15T03:30:34;2.30;;;0.67;;
31686;SDS011;18285;51.330;4.946;2024-01-15T03:54:44;1.50;;;0.80;;
31686;SDS011;18285;51.330;4.946;2024-01-15T04:18:55;1.90;;;0.57;;
31686;SDS011;18285;51.330;4.946;2024-01-15T04:43:05;1.53;;;0.50;;
31686;SDS011;18285;51.330;4.946;2024-01-15T05:07:16;5.53;;;1.90;;
31686;SDS011;18285;51.330;4.946;2024-01-15T05:31:27;4.37;;;1.77;;
31686;SDS011;18285;51.330;4.946;2024-01-15T05:55:37;2.53;;;1.23;;
31686;SDS011;18285;51.330;4.946;2024-01-15T06:19:48;2.60;;;1.07;;
31686;SDS011;18285;51.330;4.946;2024-01-15T06:43:59;6.33;;;1.30;;
31686;SDS011;18285;51.330;4.946;2024-01-15T07:08:09;7.23;;;1.40;;
31686;SDS011;18285;51.330;4.946;2024-01-15T07:32:20;4.93;;;1.10;;
31686;SDS011;18285;51.330;4.946;2024-01-15T07:56:31;4.90;;;0.80;;
31686;SDS011;18285;51.330;4.946;2024-01-15T08:20:42;1.90;;;0.60;;
31686;SDS011;18285;51.330;4.946;2024-01-15T08:44:52;1.90;;;0.70;;
31686;SDS011;18285;51.330;4.946;2024-01-15T09:09:03;1.33;;;0.50;;
31686;SDS011;18285;51.330;4.946;2024-01-15T09:33:14;1.98;;;0.90;;
31686;SDS011;18285;51.330;4.946;2024-01-15T10:21:39;2.35;;;0.75;;
31686;SDS011;18285;51.330;4.946;2024-01-15T10:45:50;0.63;;;0.40;;
31686;SDS011;18285;51.330;4.946;2024-01-15T11:10:03;1.37;;;0.50;;
31686;SDS011;18285;51.330;4.946;2024-01-15T11:34:14;1.02;;;0.50;;
31686;SDS011;18285;51.330;4.946;2024-01-15T11:58:25;1.10;;;0.53;;
31686;SDS011;18285;51.330;4.946;2024-01-15T12:22:35;0.37;;;0.37;;
31686;SDS011;18285;51.330;4.946;2024-01-15T12:46:47;0.80;;;0.40;;
31686;SDS011;18285;51.330;4.946;2024-01-15T13:10:58;0.45;;;0.40;;
31686;SDS011;18285;51.330;4.946;2024-01-15T13:35:12;1.80;;;0.40;;
31686;SDS011;18285;51.330;4.946;2024-01-15T13:59:23;3.78;;;1.08;;
31686;SDS011;18285;51.330;4.946;2024-01-15T14:23:33;1.77;;;0.77;;
31686;SDS011;18285;51.330;4.946;2024-01-15T14:47:44;1.67;;;0.70;;
31686;SDS011;18285;51.330;4.946;2024-01-15T15:11:55;3.67;;;1.17;;
31686;SDS011;18285;51.330;4.946;2024-01-15T15:36:06;2.63;;;0.80;;
31686;SDS011;18285;51.330;4.946;2024-01-15T16:00:17;7.00;;;1.27;;
31686;SDS011;18285;51.330;4.946;2024-01-15T16:24:27;13.70;;;6.50;;
31686;SDS011;18285;51.330;4.946;2024-01-15T16:48:38;19.87;;;10.30;;
31686;SDS011;18285;51.330;4.946;2024-01-15T17:12:49;10.35;;;5.10;;
31686;SDS011;18285;51.330;4.946;2024-01-15T17:37:00;12.82;;;4.70;;
31686;SDS011;18285;51.330;4.946;2024-01-15T18:01:10;22.48;;;9.32;;
31686;SDS011;18285;51.330;4.946;2024-01-15T18:25:21;17.05;;;6.10;;
31686;SDS011;18285;51.330;4.946;2024-01-15T18:49:32;12.93;;;5.15;;
31686;SDS011;18285;51.330;4.946;2024-01-15T19:13:43;10.03;;;4.20;;
31686;SDS011;18285;51.330;4.946;2024-01-15T19:37:53;10.50;;;4.17;;
31686;SDS011;18285;51.330;4.946;2024-01-15T20:02:04;5.70;;;2.90;;
31686;SDS011;18285;51.330;4.946;2024-01-15T20:26:15;6.77;;;2.57;;
31686;SDS011;18285;51.330;4.946;2024-01-15T20:50:26;4.97;;;2.10;;
31686;SDS011;18285;51.330;4.946;2024-01-15T21:14:36;7.90;;;2.23;;
31686;SDS011;18285;51.330;4.946;2024-01-15T21:38:48;3.33;;;1.80;;
31686;SDS011;18285;51.330;4.946;2024-01-15T22:27:09;5.33;;;1.60;;
31686;SDS011;18285;51.330;4.946;2024-01-15T22:51:20;4.85;;;1.33;;
31686;SDS011;18285;51.330;4.946;2024-01-15T23:15:31;2.63;;;1.10;;
31686;SDS011;18285;51.330;4.946;2024-01-15T23:39:41;3.03;;;1.20;;
